createdAt,value
2022-08-04T00:00:13.947Z,24
2022-08-04T00:05:17.497Z,23.9
2022-08-04T00:10:22.075Z,23.8
2022-08-04T00:15:25.584Z,23.7
2022-08-04T00:20:30.167Z,23.6
2022-08-04T00:25:34.693Z,23.5
2022-08-04T00:30:38.200Z,23.6
2022-08-04T00:35:42.766Z,23.6
2022-08-04T00:40:47.297Z,23.7
2022-08-04T00:46:16.855Z,23.3
2022-08-04T00:50:55.343Z,22.8
2022-08-04T00:55:59.907Z,23
2022-08-04T01:01:04.517Z,22.9
2022-08-04T01:06:07.996Z,23
2022-08-04T01:11:12.553Z,23.1
2022-08-04T01:16:17.038Z,22.9
2022-08-04T01:21:20.613Z,22.6
2022-08-04T01:26:42.818Z,22.3
2022-08-04T01:31:29.686Z,22
2022-08-04T01:36:33.351Z,21.9
2022-08-04T01:41:37.763Z,21.8
2022-08-04T01:46:42.268Z,21.8
2022-08-04T01:51:45.826Z,21.8
2022-08-04T01:56:50.380Z,22
2022-08-04T02:01:55.062Z,21.9
2022-08-04T02:06:59.452Z,22
2022-08-04T02:12:02.972Z,22
2022-08-04T02:17:07.534Z,21.5
2022-08-04T02:22:12.033Z,21.3
2022-08-04T02:27:15.625Z,21.3
2022-08-04T02:32:20.148Z,21.3
2022-08-04T02:37:24.658Z,21.2
2022-08-04T02:42:28.202Z,21.1
2022-08-04T02:48:29.228Z,21.1
2022-08-04T02:52:37.310Z,21
2022-08-04T02:57:40.829Z,20.9
2022-08-04T03:02:45.338Z,20.9
2022-08-04T03:07:49.901Z,21
2022-08-04T03:12:58.931Z,20.9
2022-08-04T03:17:57.957Z,20.9
2022-08-04T03:23:14.306Z,20.9
2022-08-04T03:28:07.051Z,20.9
2022-08-04T03:33:10.603Z,20.9
2022-08-04T03:38:15.147Z,21
2022-08-04T03:43:57.582Z,21.1
2022-08-04T03:48:23.258Z,21.3
2022-08-04T03:53:27.779Z,21.4
2022-08-04T03:58:33.955Z,21.4
2022-08-04T04:03:35.830Z,21.4
2022-08-04T04:08:40.380Z,21.4
2022-08-04T04:13:44.899Z,21.5
2022-08-04T04:18:49.472Z,21.7
2022-08-04T04:23:53.010Z,22
2022-08-04T04:28:58.532Z,22.2
2022-08-04T04:34:01.081Z,22.4
2022-08-04T04:39:05.687Z,22.5
2022-08-04T04:44:09.145Z,22.6
2022-08-04T04:49:13.677Z,22.5
2022-08-04T04:54:18.226Z,22.6
2022-08-04T04:59:22.812Z,22.8
2022-08-04T05:04:26.340Z,22.7
2022-08-04T05:09:30.848Z,22.6
2022-08-04T05:14:41.582Z,22.7
2022-08-04T05:19:38.913Z,22.9
2022-08-04T05:24:43.459Z,23.3
2022-08-04T05:29:48.009Z,24
2022-08-04T05:34:51.550Z,24.4
2022-08-04T05:39:56.099Z,24.2
2022-08-04T05:45:00.605Z,24.9
2022-08-04T05:50:04.193Z,25.2
2022-08-04T05:55:08.714Z,25.2
2022-08-04T06:00:38.905Z,25
2022-08-04T06:05:17.806Z,25.4
2022-08-04T06:10:29.790Z,25
2022-08-04T06:15:25.883Z,25.2
2022-08-04T06:20:34.743Z,25.2
2022-08-04T06:25:33.937Z,25
2022-08-04T06:30:38.469Z,24.8
2022-08-04T06:35:43.026Z,24.7
2022-08-04T06:40:46.617Z,24.9
2022-08-04T06:45:51.113Z,25
2022-08-04T06:51:32.923Z,25.5
2022-08-04T06:55:59.214Z,26.1
2022-08-04T07:01:03.757Z,26.5
2022-08-04T07:06:14.230Z,26.8
2022-08-04T07:11:12.817Z,27.2
2022-08-04T07:16:16.381Z,27.2
2022-08-04T07:21:20.859Z,28
2022-08-04T07:26:25.426Z,27.9
2022-08-04T07:31:33.022Z,27.7
2022-08-04T07:36:41.902Z,27.9
2022-08-04T07:41:38.148Z,28.2
2022-08-04T07:46:41.584Z,28.4
2022-08-04T07:51:46.124Z,28.9
2022-08-04T07:56:50.629Z,29.5
2022-08-04T08:01:54.233Z,29.8
2022-08-04T08:06:58.727Z,30.4
2022-08-04T08:12:36.133Z,29.9
2022-08-04T08:17:07.801Z,30
2022-08-04T08:22:11.379Z,30.4
2022-08-04T08:27:15.939Z,31.4
2022-08-04T08:32:20.445Z,31.2
2022-08-04T08:37:24.329Z,31.2
2022-08-04T08:42:27.565Z,32.1
2022-08-04T08:48:04.620Z,32.3
2022-08-04T08:53:00.923Z,32.4
2022-08-04T08:57:59.413Z,32.9
2022-08-04T09:02:44.734Z,33.2
2022-08-04T09:07:49.259Z,34.8
2022-08-04T09:12:53.802Z,34.2
2022-08-04T09:17:57.379Z,34.2
2022-08-04T09:23:01.880Z,34.5
2022-08-04T09:28:09.370Z,36.2
2022-08-04T09:33:10.028Z,34.3
2022-08-04T09:38:14.529Z,35.1
2022-08-04T09:43:19.850Z,34.3
2022-08-04T09:48:22.674Z,36.5
2022-08-04T09:53:27.172Z,36.3
2022-08-04T09:58:31.712Z,37.6
2022-08-04T10:03:36.300Z,39.2
2022-08-04T10:08:39.818Z,36.1
2022-08-04T10:13:44.365Z,39.1
2022-08-04T10:18:48.909Z,37.9
2022-08-04T10:23:56.248Z,35
2022-08-04T10:28:57.006Z,34.6
2022-08-04T10:34:01.540Z,33.9
2022-08-04T10:39:05.210Z,34.7
2022-08-04T10:44:09.634Z,34.1
2022-08-04T10:49:14.192Z,36.3
2022-08-04T10:54:17.733Z,34.6
2022-08-04T10:59:22.286Z,36.5
2022-08-04T11:04:27.712Z,34.8
2022-08-04T11:09:31.359Z,36.8
2022-08-04T11:14:35.011Z,38
2022-08-04T11:19:44.765Z,38.9
2022-08-04T11:24:44.002Z,40.6
2022-08-04T11:29:47.576Z,39.7
2022-08-04T11:34:52.811Z,38.1
2022-08-04T11:39:56.659Z,36.9
2022-08-04T11:45:00.193Z,37
2022-08-04T11:50:04.760Z,38.5
2022-08-04T11:55:09.315Z,39.9
2022-08-04T12:00:12.899Z,40.4
2022-08-04T12:05:35.906Z,39.9
2022-08-04T12:10:41.312Z,38.6
2022-08-04T12:15:26.523Z,37.6
2022-08-04T12:20:35.666Z,36.8
2022-08-04T12:25:34.557Z,36
2022-08-04T12:31:01.666Z,35
2022-08-04T12:35:57.514Z,34.5
2022-08-04T12:40:47.188Z,34.2
2022-08-04T12:45:51.701Z,34.3
2022-08-04T12:50:55.276Z,34.1
2022-08-04T12:56:01.475Z,33.8
2022-08-04T13:01:03.375Z,33.5
2022-08-04T13:06:08.001Z,33.5
2022-08-04T13:11:12.418Z,33.2
2022-08-04T13:16:16.010Z,33
2022-08-04T13:21:23.176Z,33.1
2022-08-04T13:30:25.063Z,33.6
2022-08-04T13:31:35.587Z,34
2022-08-04T13:36:33.170Z,34.7
2022-08-04T13:41:37.725Z,35.3
2022-08-04T13:46:41.387Z,34.1
2022-08-04T13:51:57.632Z,34.2
2022-08-04T13:56:50.325Z,35
2022-08-04T14:01:55.039Z,36.2
2022-08-04T14:06:58.435Z,36.3
2022-08-04T14:12:15.133Z,36.8
2022-08-04T14:17:07.479Z,36.7
2022-08-04T14:22:15.096Z,36.3
2022-08-04T14:27:15.612Z,36.8
2022-08-04T14:32:22.836Z,37.1
2022-08-04T14:37:23.734Z,37.3
2022-08-04T14:42:28.280Z,36.6
2022-08-04T14:47:32.785Z,36.2
2022-08-04T14:52:36.362Z,36
2022-08-04T14:58:35.529Z,36.6
2022-08-04T15:02:45.423Z,36.9
2022-08-04T15:07:49.937Z,35.8
2022-08-04T15:12:53.545Z,35.3
2022-08-04T15:17:58.066Z,34.9
2022-08-04T15:23:06.128Z,34.4
2022-08-04T15:28:06.157Z,34.7
2022-08-04T15:33:10.687Z,34.6
2022-08-04T15:38:15.221Z,34.8
2022-08-04T15:43:18.838Z,33.6
2022-08-04T15:48:23.358Z,33.5
2022-08-04T15:53:28.738Z,33.3
2022-08-04T15:58:31.469Z,32.7
2022-08-04T16:04:00.441Z,32.6
2022-08-04T16:08:40.525Z,32.9
2022-08-04T16:13:45.084Z,32.1
2022-08-04T16:18:48.636Z,31.7
2022-08-04T16:23:55.936Z,31.2
2022-08-04T16:28:57.706Z,30.7
2022-08-04T16:34:48.530Z,30.6
2022-08-04T16:39:05.833Z,30.2
2022-08-04T16:44:10.309Z,29.4
2022-08-04T16:49:13.879Z,27.9
2022-08-04T16:54:18.398Z,26.4
2022-08-04T16:59:22.923Z,25.9
2022-08-04T17:04:26.505Z,25.8
2022-08-04T17:09:31.016Z,25.8
2022-08-04T17:14:34.587Z,25.9
2022-08-04T17:19:39.146Z,26.1
2022-08-04T17:24:43.678Z,26.3
2022-08-04T17:29:47.235Z,26.6
2022-08-04T17:34:51.741Z,26.4
2022-08-04T17:39:56.335Z,26.3
2022-08-04T17:44:59.853Z,26.4
2022-08-04T17:50:04.375Z,26.6
2022-08-04T17:55:16.389Z,26.8
2022-08-04T18:00:19.234Z,26.5
2022-08-04T18:05:16.982Z,26.3
2022-08-04T18:10:27.783Z,26
2022-08-04T18:15:26.096Z,25.9
2022-08-04T18:20:29.624Z,25.9
2022-08-04T18:25:51.658Z,26.2
2022-08-04T18:30:54.965Z,26
2022-08-04T18:36:33.612Z,26.2
2022-08-04T18:45:51.532Z,25.9
2022-08-04T18:51:11.323Z,26.3
2022-08-04T18:55:59.350Z,26.5
2022-08-04T19:01:03.931Z,26.3
2022-08-04T19:06:08.433Z,26
2022-08-04T19:11:35.308Z,25.6
2022-08-04T19:16:16.851Z,25.8
2022-08-04T19:21:21.069Z,26
2022-08-04T19:26:28.151Z,26.2
2022-08-04T19:31:34.512Z,26.1
2022-08-04T19:36:33.792Z,25.9
2022-08-04T19:42:05.797Z,25.6
2022-08-04T19:46:41.758Z,25.8
2022-08-04T19:51:46.335Z,25.9
2022-08-04T19:56:49.860Z,25.6
2022-08-04T20:01:54.416Z,25.3
2022-08-04T20:06:58.928Z,25
2022-08-04T20:12:03.443Z,25.1
2022-08-04T20:17:10.455Z,25
2022-08-04T20:22:52.438Z,24.8
2022-08-04T20:27:16.397Z,24.6
2022-08-04T20:32:20.003Z,24.7
2022-08-04T20:37:24.489Z,24.7
2022-08-04T20:42:34.183Z,24.6
2022-08-04T20:47:35.599Z,24.4
2022-08-04T20:52:36.758Z,24.4
2022-08-04T20:57:49.743Z,24.4
2022-08-04T21:02:44.910Z,24.2
2022-08-04T21:07:49.408Z,24.1
2022-08-04T21:12:53.941Z,23.9
2022-08-04T21:18:04.482Z,23.9
2022-08-04T21:23:04.927Z,23.9
2022-08-04T21:28:05.609Z,23.9
2022-08-04T21:33:10.121Z,23.8
2022-08-04T21:38:16.197Z,23.6
2022-08-04T21:43:18.406Z,23.6
2022-08-04T21:48:22.719Z,23.6
2022-08-04T21:53:27.684Z,23.6
2022-08-04T21:58:32.719Z,23.6
2022-08-04T22:08:39.882Z,23.6
2022-08-04T22:13:52.796Z,23.5
2022-08-04T22:18:47.979Z,23.4
2022-08-04T22:23:52.675Z,23.5
2022-08-04T22:28:57.053Z,23.4
2022-08-04T22:34:00.571Z,23.4
2022-08-04T22:39:07.255Z,23.3
2022-08-04T22:44:13.639Z,23.3
2022-08-04T22:49:13.169Z,23.2
2022-08-04T22:54:17.743Z,23.3
2022-08-04T22:59:22.246Z,23.2
2022-08-04T23:04:26.784Z,23
2022-08-04T23:09:50.179Z,22.9
2022-08-04T23:14:34.856Z,23.1
2022-08-04T23:19:39.436Z,22.8
2022-08-04T23:24:42.957Z,22.6
2022-08-04T23:29:53.091Z,22.5
2022-08-04T23:34:52.021Z,22.5
2022-08-04T23:40:23.475Z,22.6
2022-08-04T23:45:00.115Z,22.6
2022-08-04T23:50:04.664Z,22.4
2022-08-04T23:55:08.181Z,22.2
